Main page
METAR-TAF:

METAR-TAF

Airports :

Pointe Noire Airport

Pointe-Noire, Congo

latitude: 04-49S, longitude: 011-54E, elevation: 17 m

Current weather observation

The report was made 41 minutes ago, at 14:00 UTC
Wind 8 kt from the Southwest
Temperature 24°C
Humidity 78%
Pressure 1012 hPa
Visibility 10 km or more
Few clouds at a height of 1500 ft
Broken clouds at a height of 2600 ft

METAR: FCPP 221400Z 22008KT 9999 FEW015 BKN026 24/20 Q1012 NOSIG

Time: 15:41 (14:41 UTC)

Forecast

The report was made 3 hours and 41 minutes ago, at 11:00 UTC
Forecast valid from 22 at 12 UTC to 23 at 12 UTC
Wind 4 kt from the South/Southwest
Visibility: 8000 m
Scattered clouds at a height of 2000 ft
Probability 30%
from 23 at 05 UTC to 23 at 09 UTC
Visibility: 3000 m
mist

TAF: FCPP 221100Z 2212/2312 20004KT 8000 SCT020 PROB30 2305/2309 3000 BR

Weather observations and forecasts of more than 4000 airports (METAR and TAF reports).

The available stations are represented by yellow and red dots on the map.

Hover mouse over dot to see the name of the station.

Then click to see weather observations and forecasts.

To change the map : click on the green buttons with a black cross to zoom in, on the green button with a dash to zoom out, or on the green arrows for adjacent maps.


METAR-TAF: